createdAt,value
2022-10-02T00:01:30.887Z,4.37
2022-10-02T00:03:58.983Z,4.83
2022-10-02T00:06:38.872Z,4.10
2022-10-02T00:09:07.928Z,4.73
2022-10-02T00:11:45.371Z,4.03
2022-10-02T00:14:15.860Z,4.30
2022-10-02T00:16:47.020Z,4.23
2022-10-02T00:19:17.608Z,4.53
2022-10-02T00:22:23.554Z,4.00
2022-10-02T00:25:19.430Z,3.70
2022-10-02T00:28:10.364Z,3.97
2022-10-02T00:30:57.574Z,4.80
2022-10-02T00:33:28.138Z,3.53
2022-10-02T00:36:13.477Z,4.93
2022-10-02T00:39:21.508Z,4.00
2022-10-02T00:42:31.727Z,3.67
2022-10-02T00:45:36.548Z,4.10
2022-10-02T00:48:43.071Z,3.10
2022-10-02T00:51:43.749Z,4.27
2022-10-02T00:54:20.260Z,3.30
2022-10-02T00:57:08.915Z,3.20
2022-10-02T00:59:42.620Z,4.47
2022-10-02T01:02:43.093Z,4.30
2022-10-02T01:05:11.185Z,5.20
2022-10-02T01:07:43.460Z,4.20
2022-10-02T01:10:13.421Z,5.10
2022-10-02T01:12:40.716Z,5.03
2022-10-02T01:15:16.461Z,4.43
2022-10-02T01:17:43.464Z,5.87
2022-10-02T01:20:19.530Z,4.83
2022-10-02T01:23:09.591Z,5.37
2022-10-02T01:25:36.444Z,5.30
2022-10-02T01:28:03.252Z,7.10
2022-10-02T01:30:31.728Z,5.80
2022-10-02T01:33:02.142Z,5.70
2022-10-02T01:35:35.469Z,7.23
2022-10-02T01:38:07.211Z,6.70
2022-10-02T01:40:36.420Z,6.40
2022-10-02T01:43:28.672Z,8.10
2022-10-02T01:46:13.217Z,7.90
2022-10-02T01:48:47.364Z,7.80
2022-10-02T01:51:22.362Z,7.97
2022-10-02T01:54:36.744Z,8.50
2022-10-02T01:57:24.616Z,8.80
2022-10-02T02:00:05.664Z,9.93
2022-10-02T02:02:51.029Z,8.00
2022-10-02T02:05:36.932Z,9.20
2022-10-02T02:08:09.800Z,8.50
2022-10-02T02:10:53.229Z,7.43
2022-10-02T02:13:26.615Z,6.80
2022-10-02T02:16:14.398Z,7.17
2022-10-02T02:18:48.448Z,7.27
2022-10-02T02:21:30.439Z,6.03
2022-10-02T02:23:59.822Z,5.80
2022-10-02T02:26:28.788Z,6.10
2022-10-02T02:29:00.086Z,5.20
2022-10-02T02:31:32.976Z,5.67
2022-10-02T02:34:05.037Z,5.97
2022-10-02T02:36:37.734Z,6.00
2022-10-02T02:39:12.917Z,6.57
2022-10-02T02:41:49.568Z,6.07
2022-10-02T02:44:24.162Z,5.90
2022-10-02T02:47:23.703Z,6.33
2022-10-02T02:50:05.412Z,5.47
2022-10-02T02:52:54.161Z,5.50
2022-10-02T02:55:47.824Z,4.87
2022-10-02T02:58:29.053Z,5.90
2022-10-02T03:00:56.150Z,5.70
2022-10-02T03:03:23.014Z,4.67
2022-10-02T03:05:54.472Z,4.10
2022-10-02T03:08:34.230Z,4.30
2022-10-02T03:11:16.175Z,4.23
2022-10-02T03:14:20.567Z,4.60
2022-10-02T03:17:13.406Z,4.50
2022-10-02T03:19:49.164Z,4.17
2022-10-02T03:22:46.408Z,3.83
2022-10-02T03:25:21.982Z,4.80
2022-10-02T03:28:03.323Z,3.20
2022-10-02T03:30:31.519Z,4.50
2022-10-02T03:33:01.004Z,3.50
2022-10-02T03:35:28.890Z,4.17
2022-10-02T03:38:02.485Z,3.50
2022-10-02T03:40:29.625Z,4.00
2022-10-02T03:42:59.322Z,4.10
2022-10-02T03:45:49.266Z,4.47
2022-10-02T03:48:14.558Z,3.97
2022-10-02T03:50:41.321Z,4.03
2022-10-02T03:53:17.121Z,3.63
2022-10-02T03:56:00.004Z,3.00
2022-10-02T03:58:26.865Z,4.17
2022-10-02T04:01:05.622Z,4.33
2022-10-02T04:03:39.002Z,3.57
2022-10-02T04:06:13.890Z,4.77
2022-10-02T04:08:47.900Z,4.10
2022-10-02T04:11:44.158Z,4.27
2022-10-02T04:14:26.719Z,4.37
2022-10-02T04:16:59.009Z,3.87
2022-10-02T04:19:32.823Z,3.33
2022-10-02T04:22:02.525Z,3.80
2022-10-02T04:24:49.525Z,4.00
2022-10-02T04:27:40.280Z,3.83
2022-10-02T04:30:17.383Z,4.27
2022-10-02T04:32:44.639Z,3.40
2022-10-02T04:35:24.069Z,6.10
2022-10-02T04:38:07.817Z,4.00
2022-10-02T04:40:50.500Z,3.33
2022-10-02T04:43:49.083Z,3.10
2022-10-02T04:46:36.871Z,5.47
2022-10-02T04:49:36.015Z,2.97
2022-10-02T04:52:12.787Z,3.77
2022-10-02T04:54:42.328Z,4.13
2022-10-02T04:57:31.504Z,3.97
2022-10-02T05:00:11.844Z,3.70
2022-10-02T05:02:47.418Z,4.10
2022-10-02T05:05:38.918Z,3.40
2022-10-02T05:08:28.525Z,3.83
2022-10-02T05:11:13.018Z,3.93
2022-10-02T05:14:17.593Z,4.20
2022-10-02T05:17:21.974Z,3.77
2022-10-02T05:20:23.362Z,4.20
2022-10-02T05:23:11.751Z,3.50
2022-10-02T05:26:24.410Z,3.80
2022-10-02T05:29:09.940Z,3.30
2022-10-02T05:32:10.010Z,3.67
2022-10-02T05:34:45.619Z,3.87
2022-10-02T05:37:18.104Z,3.57
2022-10-02T05:40:14.118Z,3.90
2022-10-02T05:43:19.036Z,5.30
2022-10-02T05:45:58.387Z,4.30
2022-10-02T05:48:39.776Z,3.93
2022-10-02T05:51:12.119Z,3.40
2022-10-02T05:53:58.085Z,3.93
2022-10-02T05:56:44.576Z,3.77
2022-10-02T05:59:20.439Z,4.13
2022-10-02T06:01:50.053Z,3.60
2022-10-02T06:04:22.401Z,4.50
2022-10-02T06:06:55.257Z,5.03
2022-10-02T06:09:26.790Z,3.57
2022-10-02T06:11:59.455Z,3.63
2022-10-02T06:14:50.968Z,4.07
2022-10-02T06:17:31.486Z,3.53
2022-10-02T06:20:05.523Z,4.47
2022-10-02T06:22:40.487Z,3.70
2022-10-02T06:25:21.289Z,4.60
2022-10-02T06:27:57.771Z,4.07
2022-10-02T06:30:24.820Z,4.77
2022-10-02T06:33:22.377Z,5.73
2022-10-02T06:35:49.023Z,4.50
2022-10-02T06:38:43.511Z,4.40
2022-10-02T06:41:28.659Z,6.60
2022-10-02T06:44:21.778Z,5.70
2022-10-02T06:47:13.266Z,4.70
2022-10-02T06:49:39.859Z,4.60
2022-10-02T06:52:12.868Z,6.80
2022-10-02T06:54:57.699Z,5.60
2022-10-02T06:57:33.180Z,5.73
2022-10-02T07:00:16.448Z,5.20
2022-10-02T07:03:16.613Z,6.33
2022-10-02T07:06:09.371Z,5.60
2022-10-02T07:08:54.415Z,4.97
2022-10-02T07:11:48.807Z,5.27
2022-10-02T07:14:28.033Z,7.00
2022-10-02T07:17:11.871Z,5.80
2022-10-02T07:19:56.848Z,5.73
2022-10-02T07:22:45.029Z,5.80
2022-10-02T07:25:39.590Z,5.50
2022-10-02T07:28:24.636Z,5.70
2022-10-02T07:30:54.459Z,5.27
2022-10-02T07:33:39.984Z,6.17
2022-10-02T07:36:29.912Z,6.03
2022-10-02T07:39:17.171Z,6.50
2022-10-02T07:42:12.284Z,5.30
2022-10-02T07:44:45.129Z,6.27
2022-10-02T07:47:32.752Z,5.80
2022-10-02T07:50:14.342Z,6.10
2022-10-02T07:53:04.066Z,5.47
2022-10-02T07:55:33.046Z,6.83
2022-10-02T07:58:05.934Z,6.47
2022-10-02T08:00:40.416Z,6.60
2022-10-02T08:03:24.662Z,6.10
2022-10-02T08:05:54.755Z,7.00
2022-10-02T08:08:35.692Z,7.17
2022-10-02T08:11:29.282Z,7.23
2022-10-02T08:14:07.389Z,7.10
2022-10-02T08:16:42.601Z,7.67
2022-10-02T08:19:16.977Z,7.70
2022-10-02T08:21:48.988Z,8.27
2022-10-02T08:24:27.913Z,7.40
2022-10-02T08:27:00.996Z,8.00
2022-10-02T08:29:41.823Z,7.30
2022-10-02T08:32:12.045Z,8.07
2022-10-02T08:34:40.682Z,7.70
2022-10-02T08:37:37.700Z,9.00
2022-10-02T08:40:42.462Z,8.80
2022-10-02T08:43:41.611Z,8.60
2022-10-02T08:46:33.107Z,8.40
2022-10-02T08:49:13.214Z,7.20
2022-10-02T08:51:58.814Z,7.70
2022-10-02T08:54:47.441Z,8.57
2022-10-02T08:57:43.330Z,8.30
2022-10-02T09:00:30.761Z,8.77
2022-10-02T09:03:25.775Z,9.50
2022-10-02T09:06:01.494Z,8.17
2022-10-02T09:09:00.208Z,8.90
2022-10-02T09:11:47.979Z,7.40
2022-10-02T09:14:43.773Z,7.70
2022-10-02T09:17:33.730Z,5.57
2022-10-02T09:20:12.812Z,6.10
2022-10-02T09:22:51.343Z,6.33
2022-10-02T09:25:40.166Z,6.60
2022-10-02T09:28:18.156Z,5.97
2022-10-02T09:31:06.510Z,5.80
2022-10-02T09:33:48.227Z,6.50
2022-10-02T09:36:45.877Z,6.50
2022-10-02T09:39:31.162Z,5.97
2022-10-02T09:42:05.941Z,7.00
2022-10-02T09:45:01.430Z,4.43
2022-10-02T09:47:53.274Z,5.03
2022-10-02T09:50:42.705Z,5.00
2022-10-02T09:53:36.276Z,5.07
2022-10-02T09:56:36.258Z,5.10
2022-10-02T09:59:34.669Z,3.97
2022-10-02T10:02:18.502Z,4.60
2022-10-02T10:05:06.398Z,4.00
2022-10-02T10:07:48.416Z,3.40
2022-10-02T10:10:35.393Z,3.80
2022-10-02T10:13:36.128Z,4.43
2022-10-02T10:16:33.931Z,3.53
2022-10-02T10:19:21.891Z,4.17
2022-10-02T10:21:57.760Z,3.53
2022-10-02T10:24:51.948Z,3.03
2022-10-02T10:27:37.701Z,3.70
2022-10-02T10:30:25.333Z,3.73
2022-10-02T10:33:10.561Z,2.87
2022-10-02T10:35:37.184Z,2.93
2022-10-02T10:38:36.067Z,3.40
2022-10-02T10:41:30.043Z,3.60
2022-10-02T10:44:21.834Z,3.27
2022-10-02T10:46:59.353Z,2.70
2022-10-02T10:49:40.948Z,2.70
2022-10-02T10:52:32.161Z,2.50
2022-10-02T10:55:01.571Z,3.30
2022-10-02T10:58:22.659Z,3.13
2022-10-02T11:01:38.377Z,3.00
2022-10-02T11:04:41.919Z,3.57
2022-10-02T11:07:35.044Z,3.00
2022-10-02T11:10:34.707Z,3.33
2022-10-02T11:13:23.736Z,3.10
2022-10-02T11:16:13.630Z,2.60
2022-10-02T11:18:58.897Z,2.33
2022-10-02T11:21:30.390Z,2.47
2022-10-02T11:24:10.253Z,2.40
2022-10-02T11:26:36.931Z,2.27
2022-10-02T11:29:35.305Z,2.50
2022-10-02T11:32:39.315Z,2.53
2022-10-02T11:35:06.730Z,2.50
2022-10-02T11:37:54.909Z,2.60
2022-10-02T11:40:24.735Z,2.40
2022-10-02T11:43:25.605Z,2.57
2022-10-02T11:46:14.899Z,2.70
2022-10-02T11:49:08.599Z,2.50
2022-10-02T11:51:57.032Z,2.60
2022-10-02T11:54:29.653Z,2.60
2022-10-02T11:57:24.363Z,2.70
2022-10-02T12:00:13.440Z,2.50
2022-10-02T12:03:00.019Z,2.33
2022-10-02T12:05:44.702Z,2.77
2022-10-02T12:08:34.124Z,2.93
2022-10-02T12:11:22.076Z,2.63
2022-10-02T12:14:25.491Z,2.37
2022-10-02T12:17:19.289Z,2.63
2022-10-02T12:20:34.317Z,2.23
2022-10-02T12:23:42.107Z,2.90
2022-10-02T12:26:46.447Z,2.40
2022-10-02T12:29:25.789Z,2.97
2022-10-02T12:32:00.868Z,2.87
2022-10-02T12:34:48.517Z,2.87
2022-10-02T12:37:38.016Z,2.33
2022-10-02T12:40:14.277Z,2.50
2022-10-02T12:43:02.997Z,2.50
2022-10-02T12:45:44.140Z,2.50
2022-10-02T12:48:20.493Z,2.30
2022-10-02T12:51:38.795Z,2.37
2022-10-02T12:54:26.811Z,2.50
2022-10-02T12:57:41.760Z,2.30
2022-10-02T13:00:20.767Z,2.80
2022-10-02T13:03:01.282Z,2.77
2022-10-02T13:05:44.633Z,2.37
2022-10-02T13:08:16.817Z,2.50
2022-10-02T13:10:57.337Z,2.87
2022-10-02T13:13:42.712Z,3.63
2022-10-02T13:16:27.514Z,2.57
2022-10-02T13:19:16.209Z,2.50
2022-10-02T13:22:06.780Z,3.07
2022-10-02T13:24:52.989Z,2.60
2022-10-02T13:27:31.571Z,2.80
2022-10-02T13:30:15.348Z,2.67
2022-10-02T13:32:47.837Z,3.30
2022-10-02T13:35:17.363Z,2.17
2022-10-02T13:38:03.211Z,2.17
2022-10-02T13:40:44.954Z,2.73
2022-10-02T13:43:42.334Z,2.80
2022-10-02T13:46:25.985Z,3.00
2022-10-02T13:49:15.856Z,3.60
2022-10-02T13:52:02.826Z,2.70
2022-10-02T13:55:06.325Z,3.90
2022-10-02T13:57:42.022Z,3.53
2022-10-02T14:00:49.396Z,2.80
2022-10-02T14:03:28.164Z,2.90
2022-10-02T14:06:21.076Z,2.80
2022-10-02T14:09:21.620Z,2.80
2022-10-02T14:12:20.215Z,2.17
2022-10-02T14:15:05.409Z,2.23
2022-10-02T14:17:35.860Z,3.13
2022-10-02T14:20:15.285Z,2.17
2022-10-02T14:23:07.445Z,2.43
2022-10-02T14:25:39.192Z,2.20
2022-10-02T14:28:17.701Z,2.63
2022-10-02T14:31:13.118Z,2.60
2022-10-02T14:34:01.111Z,2.30
2022-10-02T14:36:30.880Z,2.00
2022-10-02T14:39:20.320Z,2.43
2022-10-02T14:42:10.270Z,2.60
2022-10-02T14:44:48.899Z,2.27
2022-10-02T14:47:39.163Z,2.17
2022-10-02T14:50:13.603Z,1.90
2022-10-02T14:53:04.284Z,2.43
2022-10-02T14:55:49.091Z,2.17
2022-10-02T14:58:35.123Z,2.43
2022-10-02T15:01:22.956Z,3.03
2022-10-02T15:04:04.891Z,2.80
2022-10-02T15:07:02.040Z,1.83
2022-10-02T15:09:47.390Z,2.73
2022-10-02T15:12:25.667Z,2.70
2022-10-02T15:15:13.570Z,3.30
2022-10-02T15:17:56.416Z,2.10
2022-10-02T15:20:48.643Z,2.50
2022-10-02T15:23:42.117Z,2.63
2022-10-02T15:26:30.127Z,2.20
2022-10-02T15:29:24.772Z,2.30
2022-10-02T15:32:10.138Z,2.13
2022-10-02T15:34:57.891Z,2.07
2022-10-02T15:37:30.711Z,1.90
2022-10-02T15:40:21.952Z,2.10
2022-10-02T15:43:21.252Z,1.90
2022-10-02T15:45:53.477Z,2.17
2022-10-02T15:48:38.295Z,2.10
2022-10-02T15:51:10.852Z,1.93
2022-10-02T15:54:03.815Z,1.97
2022-10-02T15:56:48.158Z,2.50
2022-10-02T16:00:01.090Z,1.97
2022-10-02T16:03:05.121Z,1.93
2022-10-02T16:05:41.326Z,2.20
2022-10-02T16:08:37.734Z,2.23
2022-10-02T16:11:22.778Z,2.00
2022-10-02T16:14:15.252Z,2.60
2022-10-02T16:17:00.722Z,2.93
2022-10-02T16:19:46.334Z,2.87
2022-10-02T16:22:37.917Z,1.97
2022-10-02T16:25:42.921Z,2.07
2022-10-02T16:28:36.874Z,2.40
2022-10-02T16:31:23.217Z,2.33
2022-10-02T16:34:02.047Z,1.90
2022-10-02T16:36:33.565Z,2.60
2022-10-02T16:39:16.042Z,2.37
2022-10-02T16:42:09.376Z,2.97
2022-10-02T16:44:57.647Z,2.23
2022-10-02T16:47:47.882Z,2.00
2022-10-02T16:50:46.026Z,2.10
2022-10-02T16:53:27.922Z,2.17
2022-10-02T16:56:31.772Z,2.30
2022-10-02T16:59:04.072Z,2.60
2022-10-02T17:02:05.867Z,2.40
2022-10-02T17:04:42.996Z,3.57
2022-10-02T17:07:15.902Z,2.23
2022-10-02T17:09:49.540Z,2.90
2022-10-02T17:12:45.167Z,2.80
2022-10-02T17:15:25.315Z,2.30
2022-10-02T17:18:15.044Z,3.60
2022-10-02T17:20:53.530Z,3.57
2022-10-02T17:23:44.236Z,3.00
2022-10-02T17:26:35.644Z,3.70
2022-10-02T17:29:17.399Z,3.93
2022-10-02T17:32:01.423Z,3.20
2022-10-02T17:34:44.368Z,3.10
2022-10-02T17:37:13.832Z,3.20
2022-10-02T17:40:14.182Z,2.47
2022-10-02T17:42:53.090Z,3.63
2022-10-02T17:45:38.560Z,2.80
2022-10-02T17:48:26.652Z,2.93
2022-10-02T17:51:39.056Z,3.00
2022-10-02T17:54:54.083Z,3.27
2022-10-02T17:57:32.541Z,2.90
2022-10-02T18:00:19.489Z,2.87
2022-10-02T18:03:07.310Z,3.40
2022-10-02T18:05:51.460Z,2.80
2022-10-02T18:08:30.667Z,3.50
2022-10-02T18:11:08.144Z,4.00
2022-10-02T18:13:59.639Z,3.13
2022-10-02T18:16:54.596Z,3.57
2022-10-02T18:19:53.760Z,4.07
2022-10-02T18:22:20.419Z,3.83
2022-10-02T18:25:11.670Z,3.90
2022-10-02T18:27:47.666Z,3.60
2022-10-02T18:30:29.164Z,3.33
2022-10-02T18:33:40.707Z,3.30
2022-10-02T18:36:35.786Z,4.20
2022-10-02T18:39:26.031Z,4.00
2022-10-02T18:42:16.758Z,4.10
2022-10-02T18:44:58.495Z,5.17
2022-10-02T18:47:35.458Z,5.13
2022-10-02T18:50:14.667Z,4.27
2022-10-02T18:52:57.014Z,4.33
2022-10-02T18:55:52.293Z,4.37
2022-10-02T18:58:31.604Z,4.23
2022-10-02T19:01:09.392Z,3.90
2022-10-02T19:04:16.601Z,5.10
2022-10-02T19:07:12.721Z,4.47
2022-10-02T19:09:40.658Z,4.00
2022-10-02T19:12:22.071Z,3.33
2022-10-02T19:14:55.926Z,2.93
2022-10-02T19:17:25.942Z,4.17
2022-10-02T19:19:54.009Z,3.37
2022-10-02T19:22:22.548Z,3.27
2022-10-02T19:24:59.291Z,3.00
2022-10-02T19:27:31.002Z,3.57
2022-10-02T19:30:01.252Z,3.43
2022-10-02T19:32:32.973Z,3.43
2022-10-02T19:35:18.743Z,3.30
2022-10-02T19:37:49.067Z,3.53
2022-10-02T19:40:25.150Z,3.90
2022-10-02T19:43:08.634Z,3.43
2022-10-02T19:45:40.862Z,3.10
2022-10-02T19:48:10.907Z,4.27
2022-10-02T19:50:51.584Z,3.50
2022-10-02T19:53:25.972Z,2.73
2022-10-02T19:56:01.109Z,3.63
2022-10-02T19:58:44.099Z,3.60
2022-10-02T20:01:29.998Z,3.00
2022-10-02T20:03:59.465Z,2.80
2022-10-02T20:06:31.543Z,3.87
2022-10-02T20:09:06.545Z,4.67
2022-10-02T20:11:43.898Z,3.73
2022-10-02T20:14:51.575Z,3.50
2022-10-02T20:17:19.331Z,4.83
2022-10-02T20:19:51.711Z,3.93
2022-10-02T20:22:37.700Z,4.03
2022-10-02T20:25:09.276Z,4.10
2022-10-02T20:27:47.890Z,4.70
2022-10-02T20:30:17.839Z,3.90
2022-10-02T20:32:53.337Z,4.27
2022-10-02T20:35:20.207Z,3.73
2022-10-02T20:37:51.957Z,3.60
2022-10-02T20:40:28.530Z,4.10
2022-10-02T20:43:02.080Z,3.70
2022-10-02T20:46:03.462Z,3.77
2022-10-02T20:49:09.802Z,3.90
2022-10-02T20:52:13.830Z,4.60
2022-10-02T20:54:54.460Z,3.90
2022-10-02T20:58:00.667Z,4.00
2022-10-02T21:00:49.058Z,4.83
2022-10-02T21:03:23.509Z,4.37
2022-10-02T21:06:18.298Z,3.73
2022-10-02T21:09:09.679Z,4.10
2022-10-02T21:12:14.538Z,4.20
2022-10-02T21:15:03.247Z,4.07
2022-10-02T21:17:58.150Z,4.00
2022-10-02T21:20:52.037Z,3.87
2022-10-02T21:23:46.949Z,3.43
2022-10-02T21:26:19.509Z,3.97
2022-10-02T21:29:15.381Z,4.47
2022-10-02T21:31:47.930Z,3.70
2022-10-02T21:34:41.590Z,3.83
2022-10-02T21:37:22.265Z,3.63
2022-10-02T21:40:18.753Z,3.93
2022-10-02T21:43:00.643Z,3.53
2022-10-02T21:45:57.512Z,4.30
2022-10-02T21:48:43.225Z,3.67
2022-10-02T21:51:43.770Z,3.53
2022-10-02T21:54:39.238Z,4.20
2022-10-02T21:57:20.628Z,3.57
2022-10-02T22:00:07.916Z,4.20
2022-10-02T22:03:14.322Z,4.73
2022-10-02T22:05:56.289Z,4.87
2022-10-02T22:08:50.898Z,3.90
2022-10-02T22:11:47.048Z,3.97
2022-10-02T22:14:23.357Z,4.10
2022-10-02T22:17:13.176Z,3.90
2022-10-02T22:19:49.028Z,3.93
2022-10-02T22:22:37.576Z,3.40
2022-10-02T22:25:18.695Z,3.60
2022-10-02T22:28:04.557Z,3.90
2022-10-02T22:30:56.566Z,4.40
2022-10-02T22:33:42.152Z,3.90
2022-10-02T22:36:15.215Z,3.87
2022-10-02T22:38:59.480Z,4.53
2022-10-02T22:42:14.000Z,4.50
2022-10-02T22:44:49.732Z,4.30
2022-10-02T22:47:37.980Z,3.97
2022-10-02T22:50:20.020Z,4.10
2022-10-02T22:52:58.110Z,4.00
2022-10-02T22:55:29.741Z,4.83
2022-10-02T22:58:05.827Z,4.00
2022-10-02T23:00:56.072Z,3.93
2022-10-02T23:03:48.043Z,4.00
2022-10-02T23:06:31.379Z,3.70
2022-10-02T23:09:29.149Z,4.10
2022-10-02T23:12:00.412Z,3.50
2022-10-02T23:14:49.555Z,4.03
2022-10-02T23:17:42.882Z,4.63
2022-10-02T23:20:15.669Z,3.60
2022-10-02T23:22:59.014Z,3.77
2022-10-02T23:25:53.379Z,4.83
2022-10-02T23:28:41.736Z,4.43
2022-10-02T23:31:15.128Z,3.50
2022-10-02T23:33:52.071Z,4.00
2022-10-02T23:36:34.319Z,5.37
2022-10-02T23:39:19.062Z,4.00
2022-10-02T23:41:52.239Z,4.50
2022-10-02T23:44:39.599Z,3.83
2022-10-02T23:47:14.176Z,3.20
2022-10-02T23:49:53.416Z,4.03
2022-10-02T23:52:33.630Z,3.97
2022-10-02T23:55:26.839Z,3.63
2022-10-02T23:58:16.296Z,4.07
